Terminal Aerodrome Forecast
Issued by NWS

Home | Current Version | Previous Version | Text Only | Print | Product List | Glossary On
Versions: 1 2 3 4 5 6 7 8 9 10 11 12 13 14 15 16 17 18 19 20 21 22 23 24 25 26 27 28 29 30 31
000
FTUS43 KDVN 210350 AAB
TAFBRL
TAF AMD
KBRL 210350Z 2104/2124 12005KT 1/2SM FG OVC002
      TEMPO 2104/2107 1SM BR OVC004
     FM210700 14005KT 1 1/2SM BR OVC003
      TEMPO 2107/2109 1/2SM FG OVC002
     FM210900 16008KT 2SM BR OVC004
     FM211200 19009KT 4SM BR OVC010=

USA.gov is the U.S. government's official web portal to all federal, state and local government web resources and services.